Terminal Aerodrome Forecast
Issued by NWS

Home | Current Version | Previous Version | Text Only | Print | Product List | Glossary On
Versions: 1 2 3 4 5 6 7 8 9 10 11 12 13
000
FTUS45 KPSR 222300 RRA
TAFBLH
TAF
KBLH 222342Z 2300/2324 VRB05KT P6SM SKC
     FM230200 24007KT P6SM SKC
     FM231300 VRB05KT P6SM BKN250
     FM231800 18009KT P6SM BKN250=

USA.gov is the U.S. government's official web portal to all federal, state and local government web resources and services.